Time;durP1;ratioP1;P1;durP2;ratioP2;P2;SDS_P1;SDS_P2;PMS_P1;PMS_P2;Temp;Humidity;BMP_temperature;BMP_pressure;BME280_temperature;BME280_humidity;BME280_pressure;Samples;Min_cycle;Max_cycle;Signal;HPM_P1;HPM_P2
2023/07/31 00:00:01;;;;;;;;;;;25.40;64.80;;;;;;5075981;28;20485;-34
2023/07/31 00:02:26;;;;;;;;;;;25.40;65.10;;;;;;5083509;28;19928;-35
2023/07/31 00:04:52;;;;;;;;;;;25.40;65.30;;;;;;5083127;28;19916;-34
2023/07/31 00:07:18;;;;;;;;;;;25.40;65.70;;;;;;5083369;28;19958;-34
2023/07/31 00:09:44;;;;;;;;;;;25.40;66.20;;;;;;5083135;28;19916;-34
2023/07/31 00:12:10;;;;;;;;;;;25.40;65.90;;;;;;5082798;28;20035;-34
2023/07/31 00:14:36;;;;;;;;;;;25.50;65.70;;;;;;5080818;28;19916;-35
2023/07/31 00:17:02;;;;;;;;;;;25.40;65.50;;;;;;5075506;28;19918;-34
2023/07/31 00:19:28;;;;;;;;;;;25.40;65.50;;;;;;5082742;28;19908;-34
2023/07/31 00:21:53;;;;;;;;;;;25.40;65.60;;;;;;5081975;28;19917;-34
2023/07/31 00:24:19;;;;;;;;;;;25.50;65.80;;;;;;5083009;28;19908;-34
2023/07/31 00:26:45;;;;;;;;;;;25.40;65.80;;;;;;5082637;28;19915;-34
2023/07/31 00:29:11;;;;;;;;;;;25.40;66.10;;;;;;5082618;28;19948;-34
2023/07/31 00:31:37;;;;;;;;;;;25.40;66.30;;;;;;5054864;28;19908;-34
2023/07/31 00:34:03;;;;;;;;;;;25.40;66.70;;;;;;5082764;28;19924;-34
2023/07/31 00:36:29;;;;;;;;;;;25.50;67.10;;;;;;5082494;28;20373;-34
2023/07/31 00:38:54;;;;;;;;;;;25.50;67.50;;;;;;5075945;28;19912;-34
2023/07/31 00:41:20;;;;;;;;;;;25.50;67.90;;;;;;5082804;28;19908;-35
2023/07/31 00:43:46;;;;;;;;;;;25.50;68.20;;;;;;5082202;28;19975;-34
2023/07/31 00:46:12;;;;;;;;;;;25.50;68.40;;;;;;5082581;28;19912;-34
2023/07/31 00:48:38;;;;;;;;;;;25.50;68.70;;;;;;5082503;28;19913;-34
2023/07/31 00:51:04;;;;;;;;;;;25.50;68.80;;;;;;5082265;28;19908;-34
2023/07/31 00:53:30;;;;;;;;;;;25.60;69.10;;;;;;5082471;28;19944;-34
2023/07/31 00:55:56;;;;;;;;;;;25.50;69.10;;;;;;5063668;28;19912;-34
2023/07/31 00:58:21;;;;;;;;;;;25.60;69.40;;;;;;5082675;28;20400;-34
2023/07/31 01:00:48;;;;;;;;;;;25.60;69.50;;;;;;5081968;28;19912;-34
2023/07/31 01:03:14;;;;;;;;;;;25.60;69.60;;;;;;5082590;28;19919;-34
2023/07/31 01:05:46;;;;;;;;;;;25.60;69.70;;;;;;5081420;28;19944;-34
2023/07/31 01:08:15;;;;;;;;;;;25.60;69.80;;;;;;5047204;28;19912;-34
2023/07/31 01:10:45;;;;;;;;;;;25.60;69.90;;;;;;5079637;28;19927;-34
2023/07/31 01:13:11;;;;;;;;;;;25.60;70.00;;;;;;5078739;28;19919;-34
2023/07/31 01:15:37;;;;;;;;;;;25.60;70.00;;;;;;5082308;28;20606;-34
2023/07/31 01:18:03;;;;;;;;;;;25.60;70.20;;;;;;5081190;28;19979;-34
2023/07/31 01:20:29;;;;;;;;;;;25.60;70.30;;;;;;5082476;28;20007;-34
2023/07/31 01:22:54;;;;;;;;;;;25.60;70.40;;;;;;5082176;28;20301;-33
2023/07/31 01:25:27;;;;;;;;;;;25.60;70.50;;;;;;5082340;28;19912;-34
2023/07/31 01:28:06;;;;;;;;;;;25.70;70.60;;;;;;5081778;28;19919;-33
2023/07/31 01:30:35;;;;;;;;;;;25.60;70.50;;;;;;5060838;28;19983;-34
2023/07/31 01:33:18;;;;;;;;;;;25.70;70.70;;;;;;4999542;28;19984;-33
2023/07/31 01:35:45;;;;;;;;;;;25.70;70.70;;;;;;5000040;28;20902;-33
2023/07/31 01:38:11;;;;;;;;;;;25.70;70.60;;;;;;5006035;28;19929;-33
2023/07/31 01:40:37;;;;;;;;;;;25.70;70.70;;;;;;4998609;28;20746;-34
2023/07/31 01:43:03;;;;;;;;;;;25.70;70.70;;;;;;4999336;28;19925;-34
2023/07/31 01:45:29;;;;;;;;;;;25.70;70.70;;;;;;4999952;28;19914;-35
2023/07/31 01:47:55;;;;;;;;;;;25.70;70.70;;;;;;4999261;28;19914;-33
2023/07/31 01:50:20;;;;;;;;;;;25.70;70.60;;;;;;4999921;28;19929;-33
2023/07/31 01:52:46;;;;;;;;;;;25.70;70.70;;;;;;5000215;28;19914;-33
2023/07/31 01:55:12;;;;;;;;;;;25.70;70.60;;;;;;4999868;28;20036;-34
2023/07/31 01:57:38;;;;;;;;;;;25.70;70.70;;;;;;4999041;28;19957;-34
2023/07/31 02:00:05;;;;;;;;;;;25.70;70.70;;;;;;5003336;28;19921;-33
2023/07/31 02:02:31;;;;;;;;;;;25.70;70.70;;;;;;4999501;28;19916;-33
2023/07/31 02:04:57;;;;;;;;;;;25.70;70.70;;;;;;4999799;28;19969;-33
2023/07/31 02:07:23;;;;;;;;;;;25.70;70.70;;;;;;5003728;28;19917;-33
2023/07/31 02:09:49;;;;;;;;;;;25.80;70.80;;;;;;5016568;28;20003;-34
2023/07/31 02:12:15;;;;;;;;;;;25.70;70.80;;;;;;5081892;28;19972;-33
2023/07/31 02:14:41;;;;;;;;;;;25.70;70.90;;;;;;5078910;28;19951;-33
2023/07/31 02:17:07;;;;;;;;;;;25.80;70.90;;;;;;5080867;28;19973;-34
2023/07/31 02:19:33;;;;;;;;;;;25.70;70.70;;;;;;5084209;28;19939;-33
2023/07/31 02:21:58;;;;;;;;;;;25.80;70.90;;;;;;5084351;28;20379;-33
2023/07/31 02:24:24;;;;;;;;;;;25.80;71.00;;;;;;5085071;28;19971;-34
2023/07/31 02:26:50;;;;;;;;;;;25.80;71.00;;;;;;5083389;28;19909;-33
2023/07/31 02:29:16;;;;;;;;;;;25.70;70.90;;;;;;5078584;28;20537;-34
2023/07/31 02:31:42;;;;;;;;;;;25.70;71.00;;;;;;5081304;28;19931;-33
2023/07/31 02:34:08;;;;;;;;;;;25.70;71.00;;;;;;5078543;28;19924;-34
2023/07/31 02:36:34;;;;;;;;;;;25.80;71.10;;;;;;5077020;28;19912;-33
2023/07/31 02:38:59;;;;;;;;;;;25.70;71.00;;;;;;5084489;28;19912;-33
2023/07/31 02:41:25;;;;;;;;;;;25.70;71.00;;;;;;5085264;28;19912;-33
2023/07/31 02:43:51;;;;;;;;;;;25.70;71.10;;;;;;5081554;28;19912;-34
2023/07/31 02:46:17;;;;;;;;;;;25.80;71.20;;;;;;5084918;28;19944;-33
2023/07/31 02:48:43;;;;;;;;;;;25.80;71.30;;;;;;5084100;28;20007;-33
2023/07/31 02:51:09;;;;;;;;;;;25.80;71.30;;;;;;5084099;28;19934;-33
2023/07/31 02:53:35;;;;;;;;;;;25.80;71.40;;;;;;5084268;28;19916;-34
2023/07/31 02:56:00;;;;;;;;;;;25.70;71.20;;;;;;5084548;28;19954;-33
2023/07/31 02:58:26;;;;;;;;;;;25.80;72.00;;;;;;5084738;28;19908;-34
2023/07/31 03:00:52;;;;;;;;;;;25.80;71.40;;;;;;5084644;28;19916;-33
2023/07/31 03:03:18;;;;;;;;;;;25.70;71.30;;;;;;5084691;28;19984;-33
2023/07/31 03:05:44;;;;;;;;;;;25.80;71.30;;;;;;5084283;28;19905;-33
2023/07/31 03:08:10;;;;;;;;;;;25.80;71.40;;;;;;5083749;28;19916;-34
2023/07/31 03:10:36;;;;;;;;;;;25.80;71.40;;;;;;5083735;28;20527;-34
2023/07/31 03:13:01;;;;;;;;;;;25.80;71.30;;;;;;5084690;28;19912;-33
2023/07/31 03:15:27;;;;;;;;;;;25.80;71.20;;;;;;5084777;28;20351;-33
2023/07/31 03:17:53;;;;;;;;;;;25.80;72.00;;;;;;5084088;28;19916;-33
2023/07/31 03:20:19;;;;;;;;;;;25.80;71.20;;;;;;5084446;28;19908;-34
2023/07/31 03:22:45;;;;;;;;;;;25.70;71.10;;;;;;5083705;28;19918;-34
2023/07/31 03:25:11;;;;;;;;;;;25.80;71.10;;;;;;5084313;28;19961;-33
2023/07/31 03:27:37;;;;;;;;;;;25.80;71.10;;;;;;5083475;28;19912;-33
2023/07/31 03:30:03;;;;;;;;;;;25.80;71.00;;;;;;5080202;28;19920;-33
2023/07/31 03:32:29;;;;;;;;;;;25.80;71.10;;;;;;5084230;28;19965;-34
2023/07/31 03:34:54;;;;;;;;;;;25.70;70.90;;;;;;5083780;28;19986;-34
2023/07/31 03:37:20;;;;;;;;;;;25.70;70.90;;;;;;5079296;28;19939;-33
2023/07/31 03:39:46;;;;;;;;;;;25.70;70.90;;;;;;5081681;28;19912;-33
2023/07/31 03:42:12;;;;;;;;;;;25.80;70.90;;;;;;5083941;28;19908;-33
2023/07/31 03:44:38;;;;;;;;;;;25.70;70.80;;;;;;5083396;28;19912;-33
2023/07/31 03:47:04;;;;;;;;;;;25.70;70.90;;;;;;5083800;28;19908;-33
2023/07/31 03:49:30;;;;;;;;;;;25.70;70.90;;;;;;5083659;28;19912;-34
2023/07/31 03:51:56;;;;;;;;;;;25.70;71.00;;;;;;5083537;28;19912;-33
2023/07/31 03:54:22;;;;;;;;;;;25.70;71.10;;;;;;5077844;28;19956;-33
2023/07/31 03:56:47;;;;;;;;;;;25.70;71.00;;;;;;5081615;28;20455;-34
2023/07/31 03:59:13;;;;;;;;;;;25.70;71.10;;;;;;5082144;28;19912;-34
2023/07/31 04:01:39;;;;;;;;;;;25.70;71.00;;;;;;5080231;28;19908;-33
2023/07/31 04:04:05;;;;;;;;;;;25.70;71.00;;;;;;5083218;28;19912;-33
2023/07/31 04:06:31;;;;;;;;;;;25.70;70.90;;;;;;5083208;28;19908;-33
2023/07/31 04:08:57;;;;;;;;;;;25.70;70.90;;;;;;5082742;28;19935;-33
2023/07/31 04:11:23;;;;;;;;;;;25.70;70.70;;;;;;5083008;28;19920;-34
2023/07/31 04:13:50;;;;;;;;;;;25.70;70.70;;;;;;5083064;28;20663;-33
2023/07/31 04:16:16;;;;;;;;;;;25.70;70.70;;;;;;5082551;28;19923;-33
2023/07/31 04:18:42;;;;;;;;;;;25.70;70.70;;;;;;5080229;28;19962;-33
2023/07/31 04:21:08;;;;;;;;;;;25.70;70.70;;;;;;5081500;28;19912;-34
2023/07/31 04:23:34;;;;;;;;;;;25.70;70.70;;;;;;5054195;28;19966;-33
2023/07/31 04:25:59;;;;;;;;;;;25.60;70.50;;;;;;5082551;28;19927;-33
2023/07/31 04:28:25;;;;;;;;;;;25.70;70.50;;;;;;5081800;28;20572;-34
2023/07/31 04:30:52;;;;;;;;;;;25.70;70.50;;;;;;5082755;28;19916;-33
2023/07/31 04:33:18;;;;;;;;;;;25.60;70.50;;;;;;5082910;28;20491;-33
2023/07/31 04:35:52;;;;;;;;;;;25.60;70.60;;;;;;5082327;28;19913;-34
2023/07/31 04:38:18;;;;;;;;;;;25.60;70.50;;;;;;5082042;28;19962;-34
2023/07/31 04:40:45;;;;;;;;;;;25.60;70.70;;;;;;5081384;28;19953;-33
2023/07/31 04:43:10;;;;;;;;;;;25.60;70.90;;;;;;5082595;28;19908;-34
2023/07/31 04:45:36;;;;;;;;;;;25.60;70.80;;;;;;5082406;28;19975;-34
2023/07/31 04:48:02;;;;;;;;;;;25.60;70.90;;;;;;5082432;28;19919;-33
2023/07/31 04:50:30;;;;;;;;;;;25.60;70.90;;;;;;5082023;28;19919;-34
2023/07/31 04:52:56;;;;;;;;;;;25.60;70.70;;;;;;5081604;28;19912;-33
2023/07/31 04:55:22;;;;;;;;;;;25.60;70.70;;;;;;5081486;28;20405;-34
2023/07/31 04:57:47;;;;;;;;;;;25.60;70.60;;;;;;5082354;28;19933;-33
2023/07/31 05:00:13;;;;;;;;;;;25.60;70.60;;;;;;5078935;28;19951;-34
2023/07/31 05:02:39;;;;;;;;;;;25.60;70.60;;;;;;5082416;28;19920;-33
2023/07/31 05:05:05;;;;;;;;;;;25.60;70.60;;;;;;5082699;28;19917;-33
2023/07/31 05:07:31;;;;;;;;;;;25.60;70.60;;;;;;5082333;28;19909;-33
2023/07/31 05:09:58;;;;;;;;;;;25.60;70.60;;;;;;5082046;28;19921;-33
2023/07/31 05:12:24;;;;;;;;;;;25.60;70.50;;;;;;5082235;28;20289;-33
2023/07/31 05:14:50;;;;;;;;;;;25.50;71.20;;;;;;5082035;28;19923;-33
2023/07/31 05:17:16;;;;;;;;;;;25.60;70.70;;;;;;5080044;28;19916;-34
2023/07/31 05:19:42;;;;;;;;;;;25.60;70.70;;;;;;5079657;28;19912;-33
2023/07/31 05:22:07;;;;;;;;;;;25.50;70.60;;;;;;5082115;28;19912;-33
2023/07/31 05:24:33;;;;;;;;;;;25.60;70.70;;;;;;5082400;28;19984;-33
2023/07/31 05:26:59;;;;;;;;;;;25.50;70.80;;;;;;5081956;28;19919;-33
2023/07/31 05:29:25;;;;;;;;;;;25.50;70.90;;;;;;5081122;28;19909;-33
2023/07/31 05:31:51;;;;;;;;;;;25.50;70.90;;;;;;5081694;28;19919;-33
2023/07/31 05:34:17;;;;;;;;;;;25.50;70.90;;;;;;5081672;28;19920;-33
2023/07/31 05:36:43;;;;;;;;;;;25.50;71.00;;;;;;5080002;28;19920;-33
2023/07/31 05:39:08;;;;;;;;;;;25.50;71.10;;;;;;5082038;28;20004;-33
2023/07/31 05:41:35;;;;;;;;;;;25.50;71.00;;;;;;5081864;28;19908;-33
2023/07/31 05:44:01;;;;;;;;;;;25.50;71.10;;;;;;5081313;28;19914;-33
2023/07/31 05:46:26;;;;;;;;;;;25.40;70.80;;;;;;5081083;28;19919;-33
2023/07/31 05:48:52;;;;;;;;;;;25.50;70.80;;;;;;5081768;28;19952;-33
2023/07/31 05:51:18;;;;;;;;;;;25.50;70.80;;;;;;5081583;28;19912;-34
2023/07/31 05:53:44;;;;;;;;;;;25.40;70.80;;;;;;5082311;28;19927;-33
2023/07/31 05:56:10;;;;;;;;;;;25.50;71.00;;;;;;5085941;28;19908;-33
2023/07/31 05:58:36;;;;;;;;;;;25.40;70.70;;;;;;5085811;28;19919;-33
2023/07/31 06:01:02;;;;;;;;;;;25.40;70.70;;;;;;5085443;28;19919;-33
2023/07/31 06:03:28;;;;;;;;;;;25.40;70.60;;;;;;5084813;28;19918;-34
2023/07/31 06:05:53;;;;;;;;;;;25.40;70.60;;;;;;5085519;28;19980;-34
2023/07/31 06:08:19;;;;;;;;;;;25.40;70.70;;;;;;5079253;28;19916;-33
2023/07/31 06:10:45;;;;;;;;;;;25.40;70.70;;;;;;5078912;28;19932;-34
2023/07/31 06:13:11;;;;;;;;;;;25.40;70.80;;;;;;5085175;28;20339;-34
2023/07/31 06:15:37;;;;;;;;;;;25.40;71.00;;;;;;5085359;28;19919;-34
2023/07/31 06:18:04;;;;;;;;;;;25.40;70.90;;;;;;5085235;28;19912;-34
2023/07/31 06:20:30;;;;;;;;;;;25.40;70.90;;;;;;5083405;28;19913;-34
2023/07/31 06:22:56;;;;;;;;;;;25.40;70.70;;;;;;5085186;28;20369;-34
2023/07/31 06:25:22;;;;;;;;;;;25.40;71.00;;;;;;5082828;28;19913;-34
2023/07/31 06:27:48;;;;;;;;;;;25.40;71.00;;;;;;5084862;28;19959;-34
2023/07/31 06:30:13;;;;;;;;;;;25.40;70.90;;;;;;5081593;28;19923;-33
2023/07/31 06:32:40;;;;;;;;;;;25.40;70.80;;;;;;5083964;28;19909;-34
2023/07/31 06:35:06;;;;;;;;;;;25.40;70.80;;;;;;5085264;28;19920;-34
2023/07/31 06:37:32;;;;;;;;;;;25.30;70.70;;;;;;5085139;28;20336;-34
2023/07/31 06:39:58;;;;;;;;;;;25.30;70.70;;;;;;5084845;28;19956;-34
2023/07/31 06:42:24;;;;;;;;;;;25.40;70.90;;;;;;5084891;28;19916;-34
2023/07/31 06:44:50;;;;;;;;;;;25.30;70.70;;;;;;5084664;28;19933;-33
2023/07/31 06:47:16;;;;;;;;;;;25.30;70.70;;;;;;5083180;28;19909;-33
2023/07/31 06:49:42;;;;;;;;;;;25.30;70.80;;;;;;5084030;28;19912;-33
2023/07/31 06:52:08;;;;;;;;;;;25.30;70.70;;;;;;5078208;28;19979;-33
2023/07/31 06:54:33;;;;;;;;;;;25.30;70.70;;;;;;5085034;28;19924;-33
2023/07/31 06:56:59;;;;;;;;;;;25.30;70.80;;;;;;5084398;28;19962;-33
2023/07/31 06:59:25;;;;;;;;;;;25.30;70.90;;;;;;5082569;28;19983;-33
2023/07/31 07:01:51;;;;;;;;;;;25.30;70.80;;;;;;5083123;28;19919;-33
2023/07/31 07:04:17;;;;;;;;;;;25.20;70.70;;;;;;5084363;28;19919;-33
2023/07/31 07:06:43;;;;;;;;;;;25.30;70.90;;;;;;5083942;28;19918;-34
2023/07/31 07:09:08;;;;;;;;;;;25.30;70.90;;;;;;5077080;28;20443;-33
2023/07/31 07:11:34;;;;;;;;;;;25.30;70.90;;;;;;5084209;28;19932;-33
2023/07/31 07:14:00;;;;;;;;;;;25.30;71.00;;;;;;5083659;28;20003;-34
2023/07/31 07:16:28;;;;;;;;;;;25.20;70.90;;;;;;5084322;28;19948;-33
2023/07/31 07:18:54;;;;;;;;;;;25.20;71.00;;;;;;5084374;28;20069;-34
2023/07/31 07:21:20;;;;;;;;;;;25.20;70.80;;;;;;5084041;28;19970;-33
2023/07/31 07:23:45;;;;;;;;;;;25.20;70.90;;;;;;5083609;28;19908;-33
2023/07/31 07:26:11;;;;;;;;;;;25.20;71.00;;;;;;5084143;28;19919;-33
2023/07/31 07:28:37;;;;;;;;;;;25.20;71.00;;;;;;5083467;28;19930;-33
2023/07/31 07:31:03;;;;;;;;;;;25.20;70.90;;;;;;5083971;28;20479;-34
2023/07/31 07:33:29;;;;;;;;;;;25.20;70.90;;;;;;5084257;28;19966;-33
2023/07/31 07:35:55;;;;;;;;;;;25.20;71.00;;;;;;5083432;28;19925;-33
2023/07/31 07:38:21;;;;;;;;;;;25.20;71.10;;;;;;5083808;28;19912;-33
2023/07/31 07:40:50;;;;;;;;;;;25.20;71.10;;;;;;5082865;28;19915;-33
2023/07/31 07:43:16;;;;;;;;;;;25.20;71.10;;;;;;5083449;28;19931;-34
2023/07/31 07:45:42;;;;;;;;;;;25.20;71.10;;;;;;5083423;28;19935;-33
2023/07/31 07:48:08;;;;;;;;;;;25.20;71.10;;;;;;5076972;28;19912;-33
2023/07/31 07:50:33;;;;;;;;;;;25.10;71.10;;;;;;5083515;28;19916;-33
2023/07/31 07:52:59;;;;;;;;;;;25.20;71.30;;;;;;5083254;28;19908;-33
2023/07/31 07:55:25;;;;;;;;;;;25.10;71.10;;;;;;5083270;28;19927;-33
2023/07/31 07:57:51;;;;;;;;;;;25.10;71.10;;;;;;5083329;28;19935;-33
2023/07/31 08:00:17;;;;;;;;;;;25.10;71.30;;;;;;5079539;28;19912;-33
2023/07/31 08:02:43;;;;;;;;;;;25.10;71.30;;;;;;5079666;28;19912;-34
2023/07/31 08:05:09;;;;;;;;;;;25.10;71.20;;;;;;5083252;28;19920;-33
2023/07/31 08:07:35;;;;;;;;;;;25.10;71.10;;;;;;5076277;28;19920;-33
2023/07/31 08:10:01;;;;;;;;;;;25.10;71.30;;;;;;5083528;28;19958;-34
2023/07/31 08:12:27;;;;;;;;;;;25.10;71.90;;;;;;5083074;28;20623;-34
2023/07/31 08:14:52;;;;;;;;;;;25.10;71.20;;;;;;5082886;28;20590;-34
2023/07/31 08:17:18;;;;;;;;;;;25.10;71.30;;;;;;5080172;28;19913;-34
2023/07/31 08:19:44;;;;;;;;;;;25.10;71.20;;;;;;5083252;28;19923;-34
2023/07/31 08:22:10;;;;;;;;;;;25.10;71.30;;;;;;5083110;28;19972;-34
2023/07/31 08:24:36;;;;;;;;;;;25.00;71.30;;;;;;5082344;28;19912;-34
2023/07/31 08:27:02;;;;;;;;;;;25.00;71.30;;;;;;5079840;28;19913;-34
2023/07/31 08:29:28;;;;;;;;;;;25.00;71.40;;;;;;5083165;28;19912;-34
2023/07/31 08:31:54;;;;;;;;;;;25.00;71.40;;;;;;5082594;28;19912;-33
2023/07/31 08:34:20;;;;;;;;;;;25.00;71.30;;;;;;5082856;28;20369;-33
2023/07/31 08:36:46;;;;;;;;;;;25.00;71.40;;;;;;5082449;28;20342;-33
2023/07/31 08:39:11;;;;;;;;;;;25.00;71.50;;;;;;5076512;28;19916;-33
2023/07/31 08:41:40;;;;;;;;;;;25.00;71.50;;;;;;5082620;28;20019;-33
2023/07/31 08:44:09;;;;;;;;;;;25.00;71.60;;;;;;5082316;28;19987;-33
2023/07/31 08:46:35;;;;;;;;;;;25.00;71.50;;;;;;5082987;28;19968;-33
2023/07/31 08:49:01;;;;;;;;;;;24.90;71.50;;;;;;5080665;28;19946;-33
2023/07/31 08:51:27;;;;;;;;;;;25.00;71.60;;;;;;5082868;28;19919;-33
2023/07/31 08:53:53;;;;;;;;;;;24.90;71.50;;;;;;5081958;28;19920;-33
2023/07/31 08:56:19;;;;;;;;;;;24.90;71.60;;;;;;5082156;28;19912;-33
2023/07/31 08:58:45;;;;;;;;;;;25.00;71.60;;;;;;5082256;28;19912;-33
2023/07/31 09:01:11;;;;;;;;;;;25.00;71.70;;;;;;5079346;28;19908;-34
2023/07/31 09:03:37;;;;;;;;;;;24.90;71.60;;;;;;5080922;28;19934;-33
2023/07/31 09:06:04;;;;;;;;;;;24.90;71.60;;;;;;5082410;28;19912;-33
2023/07/31 09:08:30;;;;;;;;;;;24.90;71.70;;;;;;5064942;28;19912;-33
2023/07/31 09:10:57;;;;;;;;;;;24.90;71.60;;;;;;5064064;28;19964;-33
2023/07/31 09:13:23;;;;;;;;;;;24.90;71.70;;;;;;5063980;28;19913;-33
2023/07/31 09:15:48;;;;;;;;;;;24.90;71.80;;;;;;5082042;28;19918;-34
2023/07/31 09:18:18;;;;;;;;;;;24.90;71.80;;;;;;5082296;28;19935;-34
2023/07/31 09:20:44;;;;;;;;;;;24.90;71.70;;;;;;5082085;28;19920;-33
2023/07/31 09:23:13;;;;;;;;;;;24.90;71.70;;;;;;5082387;28;19958;-34
2023/07/31 09:25:39;;;;;;;;;;;24.90;71.90;;;;;;5082092;28;20003;-34
2023/07/31 09:28:08;;;;;;;;;;;24.90;71.90;;;;;;5082191;28;19912;-34
2023/07/31 09:30:47;;;;;;;;;;;24.80;71.90;;;;;;5082063;28;19923;-33
2023/07/31 09:33:13;;;;;;;;;;;24.80;71.80;;;;;;5075189;28;19913;-34
2023/07/31 09:35:40;;;;;;;;;;;24.80;71.90;;;;;;5081752;28;20360;-34
2023/07/31 09:38:07;;;;;;;;;;;24.80;71.90;;;;;;5082304;28;19967;-34
2023/07/31 09:40:34;;;;;;;;;;;24.80;71.90;;;;;;5082325;28;19979;-34
2023/07/31 09:43:03;;;;;;;;;;;24.80;71.90;;;;;;5063708;28;19913;-34
2023/07/31 09:45:29;;;;;;;;;;;24.80;71.90;;;;;;5081880;28;19913;-34
2023/07/31 09:47:55;;;;;;;;;;;24.80;72.00;;;;;;5081405;28;19916;-34
2023/07/31 09:50:22;;;;;;;;;;;24.80;72.00;;;;;;5082278;28;19934;-35
2023/07/31 09:52:48;;;;;;;;;;;24.80;71.90;;;;;;5081909;28;19995;-34
2023/07/31 09:55:14;;;;;;;;;;;24.80;72.00;;;;;;5081911;28;20341;-34
2023/07/31 09:57:42;;;;;;;;;;;24.80;72.00;;;;;;5080921;28;19959;-34
2023/07/31 10:00:11;;;;;;;;;;;24.80;72.00;;;;;;5074289;28;19927;-34
2023/07/31 10:02:37;;;;;;;;;;;24.80;72.00;;;;;;5081452;28;19908;-34
2023/07/31 10:05:04;;;;;;;;;;;24.80;72.10;;;;;;5081116;28;19970;-34
2023/07/31 10:07:30;;;;;;;;;;;24.80;72.30;;;;;;5073633;28;19980;-33
2023/07/31 10:09:59;;;;;;;;;;;24.80;72.10;;;;;;5080826;28;19928;-33
2023/07/31 10:12:28;;;;;;;;;;;24.70;72.10;;;;;;5081775;28;19930;-33
2023/07/31 10:14:54;;;;;;;;;;;24.70;72.10;;;;;;5071149;28;19928;-34
2023/07/31 10:17:21;;;;;;;;;;;24.70;72.10;;;;;;5076571;28;19912;-33
2023/07/31 10:19:47;;;;;;;;;;;24.70;72.20;;;;;;5081503;28;19912;-33
2023/07/31 10:22:12;;;;;;;;;;;24.70;72.30;;;;;;5063503;28;20146;-33
2023/07/31 10:24:38;;;;;;;;;;;24.70;72.30;;;;;;5080933;28;19978;-34
2023/07/31 10:27:04;;;;;;;;;;;24.70;72.30;;;;;;5080383;28;19916;-34
2023/07/31 10:29:30;;;;;;;;;;;24.70;72.20;;;;;;5077662;28;20250;-34
2023/07/31 10:31:56;;;;;;;;;;;24.70;72.30;;;;;;5048261;28;19916;-33
2023/07/31 10:34:22;;;;;;;;;;;24.60;72.20;;;;;;5062467;28;19921;-34
2023/07/31 10:36:49;;;;;;;;;;;24.70;72.30;;;;;;5080664;28;19916;-34
2023/07/31 10:39:34;;;;;;;;;;;24.70;72.30;;;;;;5075885;28;20005;-34
2023/07/31 10:42:09;;;;;;;;;;;24.70;72.30;;;;;;5084842;28;19975;-34
2023/07/31 10:44:35;;;;;;;;;;;24.70;72.40;;;;;;5078076;28;20587;-34
2023/07/31 10:47:00;;;;;;;;;;;24.60;72.30;;;;;;5082406;28;19983;-34
2023/07/31 10:49:29;;;;;;;;;;;24.60;72.20;;;;;;5079449;28;20439;-34
2023/07/31 10:51:55;;;;;;;;;;;24.60;72.40;;;;;;5063857;28;19966;-33
2023/07/31 10:54:21;;;;;;;;;;;24.60;72.30;;;;;;5081842;28;19916;-34
2023/07/31 10:56:50;;;;;;;;;;;24.60;72.40;;;;;;5084731;28;19934;-34
2023/07/31 10:59:17;;;;;;;;;;;24.60;72.40;;;;;;5083649;28;19909;-34
2023/07/31 11:02:02;;;;;;;;;;;24.60;72.40;;;;;;5081540;28;19912;-34
2023/07/31 11:04:28;;;;;;;;;;;24.60;72.40;;;;;;5084867;28;19913;-34
2023/07/31 11:06:57;;;;;;;;;;;24.60;72.50;;;;;;5082963;28;19908;-34
2023/07/31 11:09:24;;;;;;;;;;;24.60;72.40;;;;;;5078229;28;19923;-34
2023/07/31 11:11:52;;;;;;;;;;;24.60;72.50;;;;;;5084064;28;19955;-33
2023/07/31 11:14:18;;;;;;;;;;;24.60;72.50;;;;;;5066801;28;19927;-34
2023/07/31 11:16:44;;;;;;;;;;;24.60;72.50;;;;;;5084372;28;19916;-34
2023/07/31 11:19:09;;;;;;;;;;;24.60;72.60;;;;;;5084420;28;19908;-33
2023/07/31 11:21:35;;;;;;;;;;;24.50;72.40;;;;;;5084171;28;19980;-34
2023/07/31 11:24:01;;;;;;;;;;;24.60;72.50;;;;;;5080835;28;19912;-34
2023/07/31 11:26:27;;;;;;;;;;;24.60;72.50;;;;;;5079837;28;19912;-34
2023/07/31 11:28:53;;;;;;;;;;;24.60;72.60;;;;;;5083360;28;19912;-34
2023/07/31 11:31:19;;;;;;;;;;;24.60;72.60;;;;;;5068599;28;19909;-33
2023/07/31 11:33:45;;;;;;;;;;;24.50;72.50;;;;;;5082905;28;19955;-33
2023/07/31 11:36:14;;;;;;;;;;;24.50;72.60;;;;;;5084072;28;19912;-34
2023/07/31 11:38:40;;;;;;;;;;;24.50;72.60;;;;;;5083399;28;19931;-34
2023/07/31 11:41:06;;;;;;;;;;;24.50;72.70;;;;;;5084361;28;19947;-34
2023/07/31 11:43:32;;;;;;;;;;;24.50;72.60;;;;;;5084047;28;19916;-34
2023/07/31 11:45:59;;;;;;;;;;;24.50;72.60;;;;;;5083466;28;20007;-33
2023/07/31 11:48:26;;;;;;;;;;;24.50;72.70;;;;;;5065476;28;19953;-34
2023/07/31 11:50:53;;;;;;;;;;;24.50;72.60;;;;;;5082489;28;19954;-34
2023/07/31 11:53:21;;;;;;;;;;;24.50;72.60;;;;;;5083677;28;19987;-34
2023/07/31 11:55:47;;;;;;;;;;;24.50;72.70;;;;;;5065381;28;19920;-34
2023/07/31 11:58:13;;;;;;;;;;;24.50;72.70;;;;;;5057231;28;19912;-34
2023/07/31 12:00:39;;;;;;;;;;;24.50;72.80;;;;;;5076894;28;19978;-34
2023/07/31 12:03:05;;;;;;;;;;;24.50;72.80;;;;;;5083976;28;19916;-34
2023/07/31 12:05:31;;;;;;;;;;;24.50;72.70;;;;;;5083356;28;19980;-33
2023/07/31 12:07:58;;;;;;;;;;;24.50;72.70;;;;;;5076369;28;19912;-35
2023/07/31 12:10:24;;;;;;;;;;;24.50;72.80;;;;;;5083252;28;19924;-34
2023/07/31 12:13:06;;;;;;;;;;;24.50;72.80;;;;;;5079502;28;19918;-34
2023/07/31 12:15:35;;;;;;;;;;;24.50;72.90;;;;;;5083071;28;19926;-34
2023/07/31 12:18:04;;;;;;;;;;;24.50;73.60;;;;;;5083324;28;19909;-34
2023/07/31 12:20:30;;;;;;;;;;;24.50;72.80;;;;;;5083201;28;19935;-34
2023/07/31 12:22:56;;;;;;;;;;;24.50;72.80;;;;;;5082873;28;19917;-34
2023/07/31 12:25:22;;;;;;;;;;;24.40;72.90;;;;;;5081496;28;19912;-34
2023/07/31 12:27:48;;;;;;;;;;;24.40;72.90;;;;;;5082646;28;19912;-33
2023/07/31 12:30:31;;;;;;;;;;;24.40;72.80;;;;;;5064858;28;19957;-35
2023/07/31 12:32:57;;;;;;;;;;;24.40;72.90;;;;;;5064690;28;19912;-34
2023/07/31 12:35:23;;;;;;;;;;;24.40;72.90;;;;;;5080878;28;19979;-34
2023/07/31 12:37:49;;;;;;;;;;;24.40;72.90;;;;;;5075866;28;20270;-33
2023/07/31 12:40:15;;;;;;;;;;;24.40;73.00;;;;;;5082630;28;19951;-34
2023/07/31 12:42:41;;;;;;;;;;;24.40;73.00;;;;;;5077323;28;19912;-34
2023/07/31 12:45:07;;;;;;;;;;;24.40;73.00;;;;;;5082552;28;20408;-34
2023/07/31 12:47:33;;;;;;;;;;;24.40;73.00;;;;;;5082482;28;19912;-34
2023/07/31 12:49:59;;;;;;;;;;;24.40;73.10;;;;;;5082174;28;19919;-34
2023/07/31 12:52:25;;;;;;;;;;;24.40;73.00;;;;;;5082564;28;19951;-34
2023/07/31 12:54:51;;;;;;;;;;;24.40;73.00;;;;;;5082641;28;19920;-34
2023/07/31 12:57:17;;;;;;;;;;;24.40;73.00;;;;;;5081175;28;19947;-34
2023/07/31 12:59:42;;;;;;;;;;;24.40;73.00;;;;;;5078731;28;19912;-34
2023/07/31 13:02:08;;;;;;;;;;;24.40;73.00;;;;;;5074729;28;19912;-34
2023/07/31 13:04:34;;;;;;;;;;;24.40;73.00;;;;;;5082735;28;19913;-34
2023/07/31 13:07:00;;;;;;;;;;;24.40;73.10;;;;;;5082139;28;19919;-34
2023/07/31 13:09:26;;;;;;;;;;;24.40;73.10;;;;;;5082339;28;19957;-34
2023/07/31 13:11:52;;;;;;;;;;;24.40;73.30;;;;;;5077452;28;19955;-34
2023/07/31 13:14:18;;;;;;;;;;;24.40;73.20;;;;;;5082520;28;19920;-34
2023/07/31 13:16:43;;;;;;;;;;;24.40;73.30;;;;;;5082091;28;19916;-34
2023/07/31 13:19:09;;;;;;;;;;;24.50;73.40;;;;;;5082325;28;19919;-34
2023/07/31 13:21:36;;;;;;;;;;;24.50;73.20;;;;;;5082179;28;19935;-34
2023/07/31 13:24:03;;;;;;;;;;;24.50;73.10;;;;;;5082497;28;19999;-34
2023/07/31 13:26:29;;;;;;;;;;;24.50;73.10;;;;;;5082051;28;19934;-34
2023/07/31 13:28:55;;;;;;;;;;;24.50;73.20;;;;;;5081816;28;19909;-34
2023/07/31 13:31:21;;;;;;;;;;;24.50;73.10;;;;;;5081401;28;19913;-34
2023/07/31 13:33:47;;;;;;;;;;;24.50;73.10;;;;;;5081524;28;20424;-34
2023/07/31 13:36:14;;;;;;;;;;;24.50;73.00;;;;;;5077778;28;19935;-34
2023/07/31 13:38:39;;;;;;;;;;;24.50;73.10;;;;;;5077523;28;19914;-34
2023/07/31 13:41:05;;;;;;;;;;;24.50;73.10;;;;;;5081873;28;19956;-34
2023/07/31 13:43:31;;;;;;;;;;;24.50;73.30;;;;;;5082192;28;19908;-34
2023/07/31 13:45:57;;;;;;;;;;;24.50;73.30;;;;;;5081751;28;19920;-34
2023/07/31 13:48:23;;;;;;;;;;;24.50;73.40;;;;;;5082200;28;19912;-34
2023/07/31 13:50:49;;;;;;;;;;;24.50;73.50;;;;;;5078982;28;19920;-34
2023/07/31 13:53:15;;;;;;;;;;;24.50;73.40;;;;;;5081953;28;19912;-34
2023/07/31 13:55:40;;;;;;;;;;;24.50;73.50;;;;;;5081304;28;19920;-34
2023/07/31 13:58:06;;;;;;;;;;;24.50;73.60;;;;;;5081897;28;19958;-34
2023/07/31 14:00:32;;;;;;;;;;;24.50;73.60;;;;;;5078053;28;19943;-34
2023/07/31 14:02:58;;;;;;;;;;;24.60;73.80;;;;;;5082014;28;20655;-34
2023/07/31 14:05:24;;;;;;;;;;;24.60;73.80;;;;;;5081914;28;19919;-34
2023/07/31 14:07:50;;;;;;;;;;;24.60;74.00;;;;;;5072678;28;19912;-34
2023/07/31 14:10:16;;;;;;;;;;;24.60;74.10;;;;;;5078938;28;19924;-34